createdAt,value
2023-02-12T00:00:21.667Z,3.15
2023-02-12T00:04:26.684Z,3.17
2023-02-12T00:08:30.191Z,3.12
2023-02-12T00:12:33.879Z,3.08
2023-02-12T00:16:37.624Z,3.04
2023-02-12T00:20:42.605Z,3.23
2023-02-12T00:24:46.111Z,3.11
2023-02-12T00:28:49.928Z,3.14
2023-02-12T00:32:56.922Z,3.23
2023-02-12T00:37:02.120Z,3.10
2023-02-12T00:41:09.646Z,3.30
2023-02-12T00:45:22.700Z,3.22
2023-02-12T00:49:26.741Z,3.18
2023-02-12T00:53:32.868Z,3.08
2023-02-12T00:57:36.654Z,3.06
2023-02-12T01:01:40.472Z,2.89
2023-02-12T01:05:46.305Z,3.11
2023-02-12T01:09:52.669Z,3.09
2023-02-12T01:13:58.008Z,3.00
2023-02-12T01:18:02.553Z,3.05
2023-02-12T01:22:09.641Z,3.18
2023-02-12T01:26:18.513Z,3.19
2023-02-12T01:30:24.417Z,3.16
2023-02-12T01:34:29.852Z,3.15
2023-02-12T01:38:39.886Z,3.28
2023-02-12T01:42:51.108Z,3.15
2023-02-12T01:47:06.037Z,3.08
2023-02-12T01:51:20.443Z,3.11
2023-02-12T01:55:28.362Z,3.15
2023-02-12T01:59:37.862Z,2.96
2023-02-12T02:03:46.053Z,3.02
2023-02-12T02:07:53.147Z,2.99
2023-02-12T02:12:15.556Z,3.10
2023-02-12T02:16:24.630Z,2.98
2023-02-12T02:20:50.957Z,3.15
2023-02-12T02:25:25.790Z,3.22
2023-02-12T02:29:49.692Z,3.12
2023-02-12T02:33:58.369Z,3.10
2023-02-12T02:38:13.359Z,3.09
2023-02-12T02:42:19.412Z,3.17
2023-02-12T02:46:28.217Z,3.20
2023-02-12T02:50:36.248Z,3.11
2023-02-12T02:54:51.379Z,3.01
2023-02-12T02:59:06.380Z,3.10
2023-02-12T03:03:17.471Z,3.10
2023-02-12T03:07:27.505Z,3.04
2023-02-12T03:11:33.479Z,3.08
2023-02-12T03:15:42.935Z,3.23
2023-02-12T03:19:52.320Z,3.15
2023-02-12T03:24:03.973Z,3.24
2023-02-12T03:28:13.689Z,3.13
2023-02-12T03:32:26.022Z,2.91
2023-02-12T03:36:36.293Z,3.12
2023-02-12T03:40:43.772Z,3.05
2023-02-12T03:44:54.441Z,3.04
2023-02-12T03:49:03.151Z,3.17
2023-02-12T03:53:17.845Z,3.20
2023-02-12T03:57:31.773Z,3.08
2023-02-12T04:01:39.402Z,3.28
2023-02-12T04:05:46.778Z,3.33
2023-02-12T04:09:53.613Z,3.04
2023-02-12T04:14:10.788Z,3.17
2023-02-12T04:18:18.057Z,3.07
2023-02-12T04:22:31.576Z,3.10
2023-02-12T04:26:39.415Z,3.09
2023-02-12T04:30:47.894Z,3.13
2023-02-12T04:34:55.926Z,3.18
2023-02-12T04:39:05.728Z,3.14
2023-02-12T04:43:12.352Z,3.27
2023-02-12T04:47:19.402Z,3.13
2023-02-12T04:51:23.055Z,3.12
2023-02-12T04:55:29.842Z,3.09
2023-02-12T04:59:34.666Z,3.10
2023-02-12T05:03:43.002Z,3.13
2023-02-12T05:07:47.005Z,3.13
2023-02-12T05:11:59.993Z,3.20
2023-02-12T05:16:18.371Z,3.25
2023-02-12T05:20:26.890Z,3.18
2023-02-12T05:24:31.421Z,3.12
2023-02-12T05:28:41.916Z,3.03
2023-02-12T05:32:45.428Z,3.27
2023-02-12T05:36:53.789Z,3.19
2023-02-12T05:41:03.363Z,3.26
2023-02-12T05:45:08.646Z,3.17
2023-02-12T05:49:12.814Z,3.27
2023-02-12T05:53:18.311Z,3.17
2023-02-12T05:57:23.506Z,3.22
2023-02-12T06:01:29.411Z,3.09
2023-02-12T06:05:35.134Z,3.05
2023-02-12T06:09:41.027Z,3.23
2023-02-12T06:13:44.724Z,3.10
2023-02-12T06:17:51.499Z,3.31
2023-02-12T06:21:55.226Z,3.13
2023-02-12T06:26:03.677Z,3.29
2023-02-12T06:30:08.619Z,3.20
2023-02-12T06:34:16.712Z,3.19
2023-02-12T06:38:20.976Z,3.21
2023-02-12T06:42:25.884Z,3.35
2023-02-12T06:46:30.029Z,3.37
2023-02-12T06:50:33.853Z,3.24
2023-02-12T06:54:38.340Z,3.33
2023-02-12T06:58:46.123Z,3.35
2023-02-12T07:02:57.270Z,3.30
2023-02-12T07:07:01.118Z,3.24
2023-02-12T07:11:05.062Z,3.42
2023-02-12T07:15:11.328Z,3.31
2023-02-12T07:19:17.624Z,3.38
2023-02-12T07:23:24.800Z,3.41
2023-02-12T07:27:31.359Z,3.41
2023-02-12T07:31:36.478Z,3.42
2023-02-12T07:35:40.647Z,3.78
2023-02-12T07:39:45.202Z,3.72
2023-02-12T07:43:50.149Z,3.83
2023-02-12T07:47:55.084Z,3.88
2023-02-12T07:51:58.723Z,3.91
2023-02-12T07:56:16.476Z,4.12
2023-02-12T08:00:21.131Z,4.22
2023-02-12T08:04:27.336Z,4.47
2023-02-12T08:08:30.889Z,4.62
2023-02-12T08:12:34.548Z,4.89
2023-02-12T08:16:45.508Z,5.29
2023-02-12T08:20:50.778Z,5.57
2023-02-12T08:24:54.843Z,5.63
2023-02-12T08:28:59.878Z,5.76
2023-02-12T08:33:06.076Z,5.94
2023-02-12T08:37:11.766Z,5.97
2023-02-12T08:41:21.626Z,5.92
2023-02-12T08:45:27.905Z,6.09
2023-02-12T08:49:32.270Z,6.11
2023-02-12T08:53:38.366Z,6.16
2023-02-12T08:57:44.249Z,6.17
2023-02-12T09:01:51.470Z,6.19
2023-02-12T09:06:02.857Z,6.22
2023-02-12T09:10:09.088Z,6.34
2023-02-12T09:14:30.023Z,6.51
2023-02-12T09:18:37.430Z,6.78
2023-02-12T09:22:41.330Z,6.89
2023-02-12T09:26:46.206Z,6.91
2023-02-12T09:30:50.162Z,7.19
2023-02-12T09:35:05.685Z,7.06
2023-02-12T09:39:09.803Z,7.12
2023-02-12T09:43:25.927Z,7.31
2023-02-12T09:47:36.056Z,7.46
2023-02-12T09:51:39.888Z,7.30
2023-02-12T09:55:48.535Z,7.44
2023-02-12T09:59:58.009Z,7.09
2023-02-12T10:04:02.723Z,7.38
2023-02-12T10:08:32.627Z,7.36
2023-02-12T10:12:42.714Z,7.66
2023-02-12T10:16:54.854Z,7.61
2023-02-12T10:21:09.759Z,7.68
2023-02-12T10:25:23.701Z,7.53
2023-02-12T10:29:34.015Z,7.36
2023-02-12T10:33:49.870Z,7.06
2023-02-12T10:38:02.169Z,6.99
2023-02-12T10:42:17.582Z,7.18
2023-02-12T10:46:27.763Z,6.96
2023-02-12T10:50:54.802Z,7.02
2023-02-12T10:55:00.729Z,7.01
2023-02-12T10:59:07.145Z,7.13
2023-02-12T11:03:23.719Z,7.12
2023-02-12T11:07:50.211Z,7.25
2023-02-12T11:11:56.498Z,7.29
2023-02-12T11:16:02.617Z,7.25
2023-02-12T11:20:26.375Z,7.42
2023-02-12T11:24:37.792Z,7.38
2023-02-12T11:28:55.154Z,7.23
2023-02-12T11:33:18.843Z,7.38
2023-02-12T11:37:25.476Z,7.39
2023-02-12T11:41:36.560Z,7.56
2023-02-12T11:45:50.498Z,7.67
2023-02-12T11:49:59.563Z,7.58
2023-02-12T11:54:07.194Z,7.39
2023-02-12T11:58:19.980Z,7.54
2023-02-12T12:02:27.872Z,7.50
2023-02-12T12:06:39.130Z,7.47
2023-02-12T12:10:46.572Z,7.49
2023-02-12T12:15:23.191Z,7.56
2023-02-12T12:19:50.835Z,7.79
2023-02-12T12:24:00.104Z,7.66
2023-02-12T12:28:11.286Z,7.68
2023-02-12T12:32:22.006Z,7.57
2023-02-12T12:37:06.812Z,7.81
2023-02-12T12:41:20.383Z,7.84
2023-02-12T12:45:41.300Z,7.97
2023-02-12T12:50:01.946Z,7.98
2023-02-12T12:54:22.753Z,8.09
2023-02-12T12:58:38.049Z,8.10
2023-02-12T13:03:10.857Z,8.24
2023-02-12T13:07:24.519Z,8.03
2023-02-12T13:11:38.024Z,8.13
2023-02-12T13:15:47.117Z,7.89
2023-02-12T13:20:02.515Z,7.76
2023-02-12T13:24:21.997Z,7.66
2023-02-12T13:28:49.591Z,7.93
2023-02-12T13:33:05.240Z,7.66
2023-02-12T13:37:17.036Z,7.62
2023-02-12T13:41:23.348Z,7.73
2023-02-12T13:45:39.970Z,7.91
2023-02-12T13:49:49.844Z,7.93
2023-02-12T13:54:03.867Z,8.03
2023-02-12T13:58:45.731Z,7.96
2023-02-12T14:02:54.750Z,7.93
2023-02-12T14:07:03.895Z,7.73
2023-02-12T14:11:12.471Z,7.79
2023-02-12T14:15:42.382Z,7.72
2023-02-12T14:19:59.335Z,7.80
2023-02-12T14:24:53.597Z,7.79
2023-02-12T14:29:01.041Z,7.84
2023-02-12T14:33:30.600Z,7.63
2023-02-12T14:37:43.443Z,7.77
2023-02-12T14:41:58.496Z,7.59
2023-02-12T14:46:38.725Z,7.47
2023-02-12T14:50:50.684Z,7.55
2023-02-12T14:54:58.022Z,7.66
2023-02-12T14:59:07.870Z,7.65
2023-02-12T15:03:25.877Z,7.51
2023-02-12T15:07:33.778Z,7.70
2023-02-12T15:11:46.935Z,7.70
2023-02-12T15:15:54.792Z,7.53
2023-02-12T15:20:03.078Z,7.54
2023-02-12T15:24:08.256Z,7.58
2023-02-12T15:28:21.353Z,7.53
2023-02-12T15:32:26.993Z,7.53
2023-02-12T15:36:34.012Z,7.71
2023-02-12T15:40:37.431Z,7.75
2023-02-12T15:44:42.692Z,7.65
2023-02-12T15:48:50.837Z,7.69
2023-02-12T15:52:58.380Z,7.51
2023-02-12T15:57:05.832Z,7.55
2023-02-12T16:01:21.183Z,7.37
2023-02-12T16:05:25.691Z,7.16
2023-02-12T16:09:32.667Z,6.68
2023-02-12T16:13:37.707Z,6.61
2023-02-12T16:17:48.369Z,6.43
2023-02-12T16:21:54.337Z,6.25
2023-02-12T16:26:01.933Z,6.05
2023-02-12T16:30:08.781Z,5.76
2023-02-12T16:34:32.944Z,5.25
2023-02-12T16:38:46.812Z,5.47
2023-02-12T16:43:08.014Z,5.25
2023-02-12T16:47:27.287Z,4.85
2023-02-12T16:51:34.106Z,4.89
2023-02-12T16:55:38.457Z,4.71
2023-02-12T16:59:48.228Z,4.59
2023-02-12T17:04:04.397Z,4.10
2023-02-12T17:08:12.830Z,4.05
2023-02-12T17:12:19.104Z,3.78
2023-02-12T17:16:32.247Z,3.68
2023-02-12T17:20:44.651Z,3.37
2023-02-12T17:24:54.858Z,3.17
2023-02-12T17:29:05.740Z,3.27
2023-02-12T17:33:10.079Z,2.77
2023-02-12T17:37:26.971Z,2.53
2023-02-12T17:42:00.850Z,2.32
2023-02-12T17:46:10.788Z,2.27
2023-02-12T17:50:16.514Z,2.22
2023-02-12T17:59:03.848Z,2.30
2023-02-12T18:03:17.028Z,2.34
2023-02-12T18:07:25.545Z,2.21
2023-02-12T18:11:33.401Z,1.61
2023-02-12T18:15:48.412Z,1.79
2023-02-12T18:19:55.985Z,1.63
2023-02-12T18:24:00.471Z,1.45
2023-02-12T18:28:07.679Z,1.51
2023-02-12T18:32:16.656Z,1.11
2023-02-12T18:36:32.511Z,1.26
2023-02-12T18:40:36.153Z,1.07
2023-02-12T18:44:52.780Z,1.05
2023-02-12T18:49:01.742Z,1.10
2023-02-12T18:53:06.383Z,1.13
2023-02-12T18:57:13.886Z,0.97
2023-02-12T19:01:18.908Z,1.08
2023-02-12T19:10:09.249Z,0.96
2023-02-12T19:14:20.111Z,0.76
2023-02-12T19:18:30.668Z,0.67
2023-02-12T19:22:37.018Z,0.50
2023-02-12T19:26:44.768Z,0.60
2023-02-12T19:30:49.045Z,0.72
2023-02-12T19:34:52.856Z,0.67
2023-02-12T19:38:58.870Z,0.51
2023-02-12T19:43:02.994Z,0.06
2023-02-12T19:47:06.858Z,0.16
2023-02-12T19:51:20.763Z,-0.01
2023-02-12T19:55:26.116Z,-0.08
2023-02-12T19:59:34.310Z,-0.04
2023-02-12T20:03:52.629Z,-0.01
2023-02-12T20:07:56.227Z,0.14
2023-02-12T20:12:16.667Z,-0.12
2023-02-12T20:16:22.980Z,-0.26
2023-02-12T20:20:26.870Z,-0.57
2023-02-12T20:24:41.095Z,-0.11
2023-02-12T20:28:57.509Z,-0.39
2023-02-12T20:33:14.294Z,-0.55
2023-02-12T20:37:18.808Z,-0.46
2023-02-12T20:41:41.350Z,-0.34
2023-02-12T20:46:30.686Z,-0.55
2023-02-12T20:50:45.237Z,-0.52
2023-02-12T20:55:05.548Z,-0.56
2023-02-12T20:59:17.404Z,-0.67
2023-02-12T21:03:28.766Z,-0.55
2023-02-12T21:07:35.105Z,-0.76
2023-02-12T21:16:26.183Z,-0.75
2023-02-12T21:20:41.865Z,-0.75
2023-02-12T21:24:48.765Z,-0.77
2023-02-12T21:29:05.010Z,-0.77
2023-02-12T21:33:09.374Z,-0.65
2023-02-12T21:37:20.562Z,-0.60
2023-02-12T21:41:28.684Z,-0.56
2023-02-12T21:45:41.275Z,-0.70
2023-02-12T21:49:45.617Z,-0.55
2023-02-12T21:54:05.260Z,-0.60
2023-02-12T21:58:39.182Z,-0.70
2023-02-12T22:02:55.190Z,-0.63
2023-02-12T22:07:08.631Z,-0.65
2023-02-12T22:11:26.796Z,-0.72
2023-02-12T22:15:49.650Z,-0.68
2023-02-12T22:20:22.450Z,-0.72
2023-02-12T22:24:55.910Z,-0.78
2023-02-12T22:29:18.045Z,-0.92
2023-02-12T22:33:25.470Z,-0.80
2023-02-12T22:37:36.306Z,-0.70
2023-02-12T22:42:13.775Z,-0.67
2023-02-12T22:46:26.755Z,-0.79
2023-02-12T22:50:31.952Z,-0.80
2023-02-12T22:54:44.360Z,-0.76
2023-02-12T22:58:52.242Z,-0.80
2023-02-12T23:03:00.269Z,-0.93
2023-02-12T23:07:06.990Z,-1.08
2023-02-12T23:11:12.116Z,-0.95
2023-02-12T23:15:16.011Z,-1.01
2023-02-12T23:19:25.093Z,-1.18
2023-02-12T23:23:29.600Z,-1.14
2023-02-12T23:27:35.604Z,-1.15
2023-02-12T23:31:41.939Z,-1.07
2023-02-12T23:35:51.904Z,-1.11
2023-02-12T23:39:56.368Z,-1.19
2023-02-12T23:44:02.107Z,-1.23
2023-02-12T23:48:11.698Z,-1.37
2023-02-12T23:52:22.528Z,-1.21
2023-02-12T23:56:33.711Z,-1.34
